Sovereign — ZGBZ4 — position and weather

sailwx.info

Track history (hours):
 
Tides and Currents Weather Stations Pressure Air Temp Water Temp Dewpoint Dewpoint Depression Visibility Wind Speed Wind Dir Waves Ship Positions

Sovereign

Last reported at 2015-Aug-04 13:32 UTC. Time now 2015-Aug-04 13:51 UTC.
Position N 40°33' E 014°15'.

Length 55 m; draft 3 m.

Type: Pleasure craft. MMSI: 319931000.

Date/timePositionNaut miles runAvg speedWind from/ knotsBaromVisibWave heightAir tempDewpointWater temp
2015-Aug-04 13:32N 40°33' E 014°15'0 0.0
2015-Aug-04 08:14N 40°33' E 014°15'0 0.0
2015-Aug-04 01:29N 40°33' E 014°15'0 0.0
2015-Aug-03 17:34N 40°33' E 014°15'10 8.9
2015-Aug-03 16:24N 40°35' E 014°28'7 0.2
2015-Aug-02 11:33N 40°34' E 014°19'6 5.7
2015-Aug-02 10:32N 40°38' E 014°24'0 0.0
2015-Aug-02 09:32N 40°38' E 014°24'0 0.0
2015-Aug-02 08:32N 40°38' E 014°24'0 0.0
2015-Aug-02 07:20N 40°38' E 014°24'0 0.0
2015-Aug-02 06:20N 40°38' E 014°24'0 0.0
2015-Aug-02 02:17N 40°38' E 014°24'0 0.0
2015-Aug-01 23:32N 40°38' E 014°24'0 0.0
2015-Aug-01 22:32N 40°38' E 014°24'0 0.0
2015-Aug-01 21:26N 40°38' E 014°24'0 0.0
2015-Aug-01 20:11N 40°38' E 014°24'0 0.0
2015-Aug-01 19:29N 40°38' E 014°24'0 0.0
2015-Aug-01 17:20N 40°38' E 014°24'0 0.0
2015-Aug-01 16:11N 40°38' E 014°24'0 0.0
2015-Aug-01 12:14N 40°38' E 014°24'0 0.0
2015-Aug-01 11:26N 40°38' E 014°24'0 0.0
2015-Aug-01 10:32N 40°38' E 014°24'0 0.0
2015-Aug-01 09:29N 40°38' E 014°24'0 0.0
2015-Aug-01 08:32N 40°38' E 014°24'0 0.0
2015-Aug-01 07:32N 40°38' E 014°24'0 0.0
2015-Aug-01 06:32N 40°38' E 014°24'0 0.0
2015-Aug-01 05:32N 40°38' E 014°24'0 0.0
2015-Aug-01 03:32N 40°38' E 014°24'0 0.0
2015-Aug-01 02:32N 40°38' E 014°24'0 0.0
2015-Aug-01 01:32N 40°38' E 014°24'0 0.0
2015-Aug-01 00:26N 40°38' E 014°24'0 0.0
2015-Jul-31 23:32N 40°38' E 014°24'0 0.0
2015-Jul-31 22:26N 40°38' E 014°24'0 0.0
2015-Jul-31 21:32N 40°38' E 014°24'0 0.0
2015-Jul-31 20:32N 40°38' E 014°24'0 0.0
2015-Jul-31 19:29N 40°38' E 014°24'0 0.0
2015-Jul-31 17:32N 40°38' E 014°24'0 0.0
2015-Jul-31 16:32N 40°38' E 014°24'0 0.0
2015-Jul-31 15:33N 40°38' E 014°24'6 5.4
2015-Jul-31 14:30N 40°43' E 014°28'0 0.0
2015-Jul-31 12:33N 40°43' E 014°28'0 0.0
2015-Jul-31 11:12N 40°43' E 014°28'0 0.0
2015-Jul-31 10:33N 40°43' E 014°28'0 0.0
2015-Jul-31 09:21N 40°43' E 014°28'0 0.0
2015-Jul-31 02:06N 40°43' E 014°28'0 0.0
2015-Jul-30 21:33N 40°43' E 014°28'0 0.0
2015-Jul-29 23:12N 40°43' E 014°28'0 0.0
2015-Jul-29 22:18N 40°43' E 014°28'0 0.0
2015-Jul-29 06:22N 40°43' E 014°28'7 8.3
2015-Jul-29 05:33N 40°39' E 014°21'10 9.5
2015-Jul-29 04:27N 40°29' E 014°22'11011.0
2015-Jul-28 18:27N 38°49' E 015°23'1010.7
2015-Jul-28 17:31N 38°40' E 015°28'1110.8
2015-Jul-28 16:33N 38°30' E 015°34'1111.0
2015-Jul-28 15:33N 38°20' E 015°40'10 9.7
2015-Jul-28 14:33N 38°11' E 015°37'1110.7
2015-Jul-28 13:33N 38°00' E 015°36'1110.9
2015-Jul-28 12:33N 37°53' E 015°46'  
Track history (hours):
 
Tides and Currents Weather Stations Pressure Air Temp Water Temp Dewpoint Dewpoint Depression Visibility Wind Speed Wind Dir Waves Ship Positions

Sovereign

Last reported at 2015-Aug-04 13:32 UTC. Time now 2015-Aug-04 13:51 UTC.
Position N 40°33' E 014°15'.

Length 55 m; draft 3 m.

Type: Pleasure craft. MMSI: 319931000.

Date/timePositionNaut miles runAvg speedWind from/ knotsBaromVisibWave heightAir tempDewpointWater temp
2015-Aug-04 13:32N 40°33' E 014°15'0 0.0
2015-Aug-04 08:14N 40°33' E 014°15'0 0.0
2015-Aug-04 01:29N 40°33' E 014°15'0 0.0
2015-Aug-03 17:34N 40°33' E 014°15'10 8.9
2015-Aug-03 16:24N 40°35' E 014°28'7 0.2
2015-Aug-02 11:33N 40°34' E 014°19'6 5.7
2015-Aug-02 10:32N 40°38' E 014°24'0 0.0
2015-Aug-02 09:32N 40°38' E 014°24'0 0.0
2015-Aug-02 08:32N 40°38' E 014°24'0 0.0
2015-Aug-02 07:20N 40°38' E 014°24'0 0.0
2015-Aug-02 06:20N 40°38' E 014°24'0 0.0
2015-Aug-02 02:17N 40°38' E 014°24'0 0.0
2015-Aug-01 23:32N 40°38' E 014°24'0 0.0
2015-Aug-01 22:32N 40°38' E 014°24'0 0.0
2015-Aug-01 21:26N 40°38' E 014°24'0 0.0
2015-Aug-01 20:11N 40°38' E 014°24'0 0.0
2015-Aug-01 19:29N 40°38' E 014°24'0 0.0
2015-Aug-01 17:20N 40°38' E 014°24'0 0.0
2015-Aug-01 16:11N 40°38' E 014°24'0 0.0
2015-Aug-01 12:14N 40°38' E 014°24'0 0.0
2015-Aug-01 11:26N 40°38' E 014°24'0 0.0
2015-Aug-01 10:32N 40°38' E 014°24'0 0.0
2015-Aug-01 09:29N 40°38' E 014°24'0 0.0
2015-Aug-01 08:32N 40°38' E 014°24'0 0.0
2015-Aug-01 07:32N 40°38' E 014°24'0 0.0
2015-Aug-01 06:32N 40°38' E 014°24'0 0.0
2015-Aug-01 05:32N 40°38' E 014°24'0 0.0
2015-Aug-01 03:32N 40°38' E 014°24'0 0.0
2015-Aug-01 02:32N 40°38' E 014°24'0 0.0
2015-Aug-01 01:32N 40°38' E 014°24'0 0.0
2015-Aug-01 00:26N 40°38' E 014°24'0 0.0
2015-Jul-31 23:32N 40°38' E 014°24'0 0.0
2015-Jul-31 22:26N 40°38' E 014°24'0 0.0
2015-Jul-31 21:32N 40°38' E 014°24'0 0.0
2015-Jul-31 20:32N 40°38' E 014°24'0 0.0
2015-Jul-31 19:29N 40°38' E 014°24'0 0.0
2015-Jul-31 17:32N 40°38' E 014°24'0 0.0
2015-Jul-31 16:32N 40°38' E 014°24'0 0.0
2015-Jul-31 15:33N 40°38' E 014°24'6 5.4
2015-Jul-31 14:30N 40°43' E 014°28'0 0.0
2015-Jul-31 12:33N 40°43' E 014°28'0 0.0
2015-Jul-31 11:12N 40°43' E 014°28'0 0.0
2015-Jul-31 10:33N 40°43' E 014°28'0 0.0
2015-Jul-31 09:21N 40°43' E 014°28'0 0.0
2015-Jul-31 02:06N 40°43' E 014°28'0 0.0
2015-Jul-30 21:33N 40°43' E 014°28'0 0.0
2015-Jul-29 23:12N 40°43' E 014°28'0 0.0
2015-Jul-29 22:18N 40°43' E 014°28'0 0.0
2015-Jul-29 06:22N 40°43' E 014°28'7 8.3
2015-Jul-29 05:33N 40°39' E 014°21'10 9.5
2015-Jul-29 04:27N 40°29' E 014°22'11011.0
2015-Jul-28 18:27N 38°49' E 015°23'1010.7
2015-Jul-28 17:31N 38°40' E 015°28'1110.8
2015-Jul-28 16:33N 38°30' E 015°34'1111.0
2015-Jul-28 15:33N 38°20' E 015°40'10 9.7
2015-Jul-28 14:33N 38°11' E 015°37'1110.7
2015-Jul-28 13:33N 38°00' E 015°36'1110.9
2015-Jul-28 12:33N 37°53' E 015°46'  

Dump ship's entire track history